Latest Weather Observations for Halls Creek

IDW60801

Issued at 5:33 pm WST Saturday 20 July 2019 (issued every 10 minutes, with the page automatically refreshed every 10 minutes)

About weather observations | Map of weather stations | Latest weather observations for WA | Other Formats
Station Details ID: 002079 Name: HALLS CREEK AIRPORT Lat: -18.23 Lon: 127.67 Height: 409.4 m
Data from the previous 72 hours. | See also: Recent months at Halls Creek
Date/Time
WST
Temp
°C
App
Temp
°C
Dew
Point
°C
Rel
Hum
%
Delta-T
°C
Wind Press
QNH
hPa
Press
MSL
hPa
Rain since
9am
mm
Dir  Spd
km/h
Gust
km/h
Spd
kts
Gust
kts
20/05:30pm 27.1 22.8 -4.7 12 13.9 W 9 9 5 5 1014.4 1013.0 0.0
20/05:00pm 29.2 25.2 -5.5 10 15.3 W 7 9 4 5 1014.2 1012.8 0.0
20/04:30pm 31.7 27.8 -5.0 9 16.6 WNW 7 11 4 6 1013.9 1012.4 0.0
20/04:00pm 31.6 27.3 -5.1 9 16.6 WSW 9 17 5 9 1013.8 1012.3 0.0
20/03:30pm 32.0 27.3 -4.8 9 16.7 WNW 11 20 6 11 1013.7 1012.2 0.0
20/03:00pm 32.2 28.5 -4.6 9 16.8 NNE 6 13 3 7 1013.5 1012.0 0.0
20/02:30pm 32.1 27.8 -4.7 9 16.8 N 9 17 5 9 1013.7 1012.2 0.0
20/02:00pm 32.1 28.4 -4.7 9 16.8 WNW 6 13 3 7 1014.1 1012.7 0.0
20/01:30pm 32.2 27.9 -4.6 9 16.8 NNW 9 19 5 10 1014.4 1013.0 0.0
20/01:00pm 31.0 26.6 -5.5 9 16.3 NW 9 17 5 9 1014.8 1013.4 0.0
20/12:30pm 30.6 26.6 -5.8 9 16.1 W 7 17 4 9 1015.4 1013.9 0.0
20/12:00pm 29.9 25.6 -5.0 10 15.6 NW 9 17 5 9 1015.7 1014.2 0.0
20/11:30am 29.4 25.6 -5.4 10 15.4 NW 6 13 3 7 1016.1 1014.7 0.0
20/11:00am 29.2 24.5 -5.5 10 15.2 NE 11 17 6 9 1016.6 1015.2 0.0
20/10:30am 28.8 24.1 -4.6 11 14.9 NE 11 17 6 9 1017.2 1015.8 0.0
20/10:00am 27.8 23.2 -4.2 12 14.2 NE 11 19 6 10 1017.5 1016.1 0.0
20/09:30am 27.0 22.7 -4.8 12 13.9 NE 9 15 5 8 1018.0 1016.5 0.0
20/09:00am 26.0 21.7 -4.5 13 13.3 NNE 9 15 5 8 1018.2 1016.7 0.0
20/08:30am 24.9 21.0 -4.4 14 12.7 NNE 7 15 4 8 1018.2 1016.7 0.0
20/08:00am 22.9 19.3 -3.4 17 11.4 NE 6 9 3 5 1017.7 1016.2 0.0
20/07:30am 19.8 17.3 -3.8 20 9.9 CALM 0 0 0 0 1017.3 1015.9 0.0
20/07:00am 16.3 13.8 -4.3 24 8.2 CALM 0 0 0 0 1017.1 1015.7 0.0
20/06:30am 12.7 10.2 -4.4 30 6.6 CALM 0 0 0 0 1016.8 1015.4 0.0
20/06:00am 11.8 9.2 -4.8 31 6.2 CALM 0 0 0 0 1016.5 1015.1 0.0
20/05:30am 11.9 7.9 -5.5 29 6.4 NE 7 9 4 5 1016.5 1015.1 0.0
20/05:00am 12.4 8.0 -6.0 27 6.8 NE 9 11 5 6 1016.4 1015.0 0.0
20/04:30am 15.5 10.5 -4.4 25 7.9 NE 13 15 7 8 1016.2 1014.8 0.0
20/04:00am 11.9 8.2 -4.7 31 6.3 NE 6 9 3 5 1016.2 1014.8 0.0
20/03:30am 10.3 7.7 -4.5 35 5.5 CALM 0 0 0 0 1016.3 1014.9 0.0
20/03:00am 10.6 8.0 -4.6 34 5.7 CALM 0 0 0 0 1016.2 1014.8 0.0
20/02:30am 11.1 8.5 -5.4 31 6.1 CALM 0 0 0 0 1016.3 1014.9 0.0
20/02:00am 11.6 9.0 -5.4 30 6.3 CALM 0 0 0 0 1016.4 1015.0 0.0
20/01:30am 12.4 9.8 -4.7 30 6.5 CALM 0 0 0 0 1016.5 1015.1 0.0
20/01:00am 12.6 10.0 -5.4 28 6.7 CALM 0 0 0 0 1016.8 1015.4 0.0
20/12:30am 13.8 10.0 -3.9 29 6.9 NNW 7 11 4 6 1016.7 1015.3 0.0
20/12:00am 13.9 11.3 -5.3 26 7.3 CALM 0 0 0 0 1016.9 1015.5 0.0
 
Date/Time
WST
Temp
°C
App
Temp
°C
Dew
Point
°C
Rel
Hum
%
Delta-T
°C
Wind Press
QNH
hPa
Press
MSL
hPa
Rain since
9am
mm
Dir  Spd
km/h
Gust
km/h
Spd
kts
Gust
kts
19/11:30pm 14.4 10.6 -5.3 25 7.5 WSW 6 9 3 5 1016.9 1015.5 0.0
19/11:00pm 14.8 11.1 -4.5 26 7.5 E 6 7 3 4 1016.7 1015.3 0.0
19/10:30pm 14.9 11.1 -6.0 23 7.9 ENE 6 9 3 5 1016.8 1015.4 0.0
19/10:00pm 16.0 13.1 -4.5 24 8.1 NW 2 7 1 4 1017.0 1015.6 0.0
19/09:30pm 16.0 13.4 -5.1 23 8.3 CALM 0 6 0 3 1017.1 1015.7 0.0
19/09:00pm 15.7 12.4 -4.8 24 8.0 NE 4 7 2 4 1016.9 1015.5 0.0
19/08:30pm 15.7 13.1 -4.8 24 8.0 CALM 0 0 0 0 1017.0 1015.6 0.0
19/08:00pm 17.2 14.7 -4.1 23 8.6 CALM 0 0 0 0 1016.8 1015.4 0.0
19/07:30pm 17.0 14.4 -4.8 22 8.7 CALM 0 0 0 0 1016.6 1015.2 0.0
19/07:00pm 18.2 15.6 -5.1 20 9.3 CALM 0 0 0 0 1016.2 1014.8 0.0
19/06:30pm 19.1 16.5 -5.0 19 9.8 CALM 0 4 0 2 1015.9 1014.4 0.0
19/06:00pm 20.9 18.3 -5.0 17 10.7 CALM 0 0 0 0 1015.6 1014.1 0.0
19/05:30pm 22.7 20.0 -6.1 14 11.8 CALM 0 6 0 3 1015.3 1013.8 0.0
19/05:00pm 27.3 23.2 -6.9 10 14.4 ENE 7 7 4 4 1015.1 1013.6 0.0
19/04:30pm 29.5 25.0 -6.7 9 15.6 ENE 9 13 5 7 1014.9 1013.5 0.0
19/04:00pm 29.8 25.9 -6.4 9 15.7 NNE 6 13 3 7 1014.8 1013.4 0.0
19/03:30pm 29.7 25.1 -8.0 8 15.9 NE 9 15 5 8 1014.5 1013.1 0.0
19/03:00pm 30.3 25.5 -6.1 9 16.0 E 11 20 6 11 1014.4 1013.0 0.0
19/02:30pm 30.0 24.7 -7.8 8 16.1 ENE 13 24 7 13 1014.5 1013.1 0.0
19/02:00pm 30.0 24.0 -6.3 9 15.8 NE 17 24 9 13 1014.6 1013.2 0.0
19/01:30pm 29.6 23.6 -6.6 9 15.7 ENE 17 24 9 13 1014.6 1013.2 0.0
19/01:00pm 29.1 22.5 -7.0 9 15.4 ENE 20 30 11 16 1014.7 1013.3 0.0
19/12:30pm 28.6 22.2 -7.3 9 15.2 ENE 19 30 10 16 1015.3 1013.8 0.0
19/12:00pm 28.6 22.1 -6.0 10 15.0 NE 20 30 11 16 1015.7 1014.2 0.0
19/11:30am 28.2 20.9 -6.3 10 14.8 ENE 24 35 13 19 1016.4 1015.0 0.0
19/11:00am 27.6 20.0 -5.5 11 14.3 ENE 26 35 14 19 1016.9 1015.5 0.0
19/10:30am 26.5 18.1 -6.3 11 13.9 ENE 30 39 16 21 1017.5 1016.1 0.0
19/10:00am 26.0 17.6 -5.6 12 13.5 ENE 30 39 16 21 1018.1 1016.6 0.0
19/09:30am 25.0 16.3 -5.3 13 12.9 ENE 32 41 17 22 1018.2 1016.7 0.0
19/09:00am 24.4 15.7 -4.8 14 12.5 ENE 32 43 17 23 1018.3 1016.9 0.0
19/08:30am 23.2 16.1 -4.8 15 11.8 ENE 24 33 13 18 1018.3 1016.9 0.0
19/08:00am 21.0 15.7 -3.5 19 10.4 ENE 15 19 8 10 1018.3 1016.9 0.0
19/07:30am 17.7 13.8 -4.3 22 8.9 NE 7 9 4 5 1018.1 1016.6 0.0
19/07:00am 15.9 13.5 -3.0 27 7.7 CALM 0 0 0 0 1018.0 1016.5 0.0
19/06:30am 11.2 8.7 -3.7 35 5.7 CALM 0 0 0 0 1017.7 1016.2 0.0
19/06:00am 10.1 7.2 -4.3 36 5.4 E 2 6 1 3 1017.4 1016.0 0.0
19/05:30am 10.0 6.3 -4.4 36 5.4 ENE 6 7 3 4 1017.2 1015.8 0.0
19/05:00am 11.4 8.1 -4.3 33 5.9 ENE 4 7 2 4 1017.0 1015.6 0.0
19/04:30am 13.2 9.5 -2.7 33 6.4 ESE 7 11 4 6 1017.0 1015.6 0.0
19/04:00am 10.0 6.4 -4.0 37 5.2 SE 6 7 3 4 1017.0 1015.6 0.0
19/03:30am 11.1 8.6 -4.1 34 5.8 CALM 0 2 0 1 1016.9 1015.5 0.0
19/03:00am 11.2 8.6 -4.5 33 5.9 CALM 0 0 0 0 1016.9 1015.5 0.0
19/02:30am 10.9 7.6 -4.3 34 5.7 S 4 6 2 3 1016.9 1015.5 0.0
19/02:00am 12.5 8.9 -3.7 32 6.3 E 6 7 3 4 1016.9 1015.5 0.0
19/01:30am 11.6 9.1 -3.7 34 5.9 CALM 0 0 0 0 1017.1 1015.7 0.0
19/01:00am 11.6 9.1 -3.7 34 5.9 CALM 0 0 0 0 1017.2 1015.8 0.0
19/12:30am 12.2 9.7 -4.0 32 6.2 CALM 0 0 0 0 1017.3 1015.9 0.0
19/12:00am 13.3 10.9 -3.0 32 6.5 CALM 0 0 0 0 1017.4 1016.0 0.0
 
Date/Time
WST
Temp
°C
App
Temp
°C
Dew
Point
°C
Rel
Hum
%
Delta-T
°C
Wind Press
QNH
hPa
Press
MSL
hPa
Rain since
9am
mm
Dir  Spd
km/h
Gust
km/h
Spd
kts
Gust
kts
18/11:30pm 12.4 9.6 -3.4 33 6.2 SSE 2 7 1 4 1017.3 1015.9 0.0
18/11:00pm 12.6 10.1 -3.6 32 6.3 CALM 0 0 0 0 1017.4 1016.0 0.0
18/10:30pm 13.3 10.9 -3.0 32 6.5 CALM 0 0 0 0 1017.3 1015.9 0.0
18/10:00pm 14.2 11.8 -3.1 30 6.9 CALM 0 0 0 0 1017.3 1015.9 0.0
18/09:30pm 14.9 12.5 -3.4 28 7.3 CALM 0 0 0 0 1017.4 1016.0 0.0
18/09:00pm 16.1 13.7 -3.4 26 7.9 CALM 0 4 0 2 1017.4 1016.0 0.0
18/08:30pm 16.7 13.0 -2.9 26 8.1 SE 7 9 4 5 1017.4 1016.0 0.0
18/08:00pm 15.4 12.6 -3.5 27 7.6 SE 2 6 1 3 1017.3 1015.9 0.0
18/07:30pm 16.2 13.8 -3.3 26 7.9 CALM 0 0 0 0 1017.0 1015.6 0.0
18/07:00pm 16.9 14.4 -4.3 23 8.5 CALM 0 0 0 0 1016.6 1015.2 0.0
18/06:30pm 18.3 15.8 -3.8 22 9.1 CALM 0 0 0 0 1016.3 1014.9 0.0
18/06:00pm 19.7 17.1 -4.5 19 9.9 CALM 0 0 0 0 1016.0 1014.5 0.0
18/05:30pm 22.2 18.9 -4.8 16 11.3 ESE 4 6 2 3 1015.9 1014.4 0.0
18/05:00pm 25.6 20.9 -4.8 13 13.1 E 11 13 6 7 1015.6 1014.1 0.0
18/04:30pm 27.2 22.0 -5.8 11 14.2 E 13 19 7 10 1015.4 1013.9 0.0
18/04:00pm 27.7 23.3 -5.4 11 14.4 ESE 9 17 5 9 1015.2 1013.7 0.0
18/03:30pm 27.9 22.8 -5.2 11 14.5 ENE 13 22 7 12 1015.1 1013.6 0.0
18/03:00pm 28.0 22.9 -5.2 11 14.5 NE 13 24 7 13 1015.1 1013.6 0.0
18/02:30pm 27.7 23.8 -4.3 12 14.2 NNE 7 19 4 10 1015.2 1013.7 0.0
18/02:00pm 27.3 22.8 -3.5 13 13.8 E 11 19 6 10 1015.5 1014.0 0.0
18/01:30pm 27.1 21.8 -3.7 13 13.7 NE 15 22 8 12 1015.9 1014.4 0.0
18/01:00pm 27.0 21.4 -2.7 14 13.5 NE 17 24 9 13 1016.3 1014.9 0.0
18/12:30pm 27.0 21.9 -1.8 15 13.3 NE 15 26 8 14 1016.7 1015.3 0.0
18/12:00pm 25.8 20.2 -2.8 15 12.8 NE 17 28 9 15 1017.0 1015.6 0.0
18/11:30am 25.5 19.4 -2.1 16 12.5 ENE 20 32 11 17 1017.7 1016.2 0.0
18/11:00am 24.8 18.0 -1.9 17 12.1 NE 24 33 13 18 1018.1 1016.6 0.0
18/10:30am 24.0 16.4 -1.8 18 11.6 E 28 37 15 20 1018.6 1017.2 0.0
18/10:00am 23.2 16.4 -1.7 19 11.1 ENE 24 35 13 19 1019.1 1017.7 0.0
18/09:30am 22.4 15.3 -1.6 20 10.7 E 26 35 14 19 1019.4 1018.0 0.0
18/09:00am 21.2 14.0 -2.0 21 10.1 ENE 26 33 14 18 1019.6 1018.2 0.0
18/08:30am 20.2 13.1 -1.0 24 9.4 ENE 26 35 14 19 1019.9 1018.5 0.0
18/08:00am 19.1 13.2 -0.8 26 8.8 ENE 20 30 11 16 1019.8 1018.4 0.0
18/07:30am 17.6 12.3 -0.6 29 8.0 E 17 22 9 12 1019.6 1018.2 0.0
18/07:00am 16.5 12.3 -0.7 31 7.4 ENE 11 13 6 7 1019.3 1017.9 0.0
18/06:30am 15.0 10.4 -0.7 34 6.7 ENE 13 17 7 9 1019.1 1017.7 0.0
18/06:00am 14.1 9.9 -0.7 36 6.2 ENE 11 15 6 8 1018.7 1017.3 0.0
18/05:30am 13.9 10.1 -0.5 37 6.1 ENE 9 13 5 7 1018.4 1017.0 0.0
18/05:00am 12.9 9.7 -0.7 39 5.7 NE 6 9 3 5 1018.2 1016.7 0.0
18/04:30am 12.8 9.6 -0.8 39 5.7 ENE 6 7 3 4 1018.0 1016.5 0.0
18/04:00am 13.3 9.5 -0.7 38 5.9 ENE 9 13 5 7 1017.8 1016.3 0.0
18/03:30am 13.2 10.0 -0.8 38 5.8 E 6 11 3 6 1017.9 1016.4 0.0
18/03:00am 13.2 10.3 -1.2 37 6.0 NE 4 7 2 4 1017.7 1016.2 0.0
18/02:30am 13.8 10.9 -1.4 35 6.3 ENE 4 7 2 4 1017.8 1016.3 0.0
18/02:00am 15.6 11.0 -1.0 32 7.1 ESE 13 19 7 10 1017.9 1016.4 0.0
18/01:30am 15.7 11.1 -0.9 32 7.1 ESE 13 15 7 8 1018.0 1016.5 0.0
18/01:00am 14.0 10.1 -1.6 34 6.4 ESE 9 11 5 6 1018.0 1016.5 0.0
18/12:30am 14.8 10.4 -2.1 31 7.0 ESE 11 13 6 7 1018.2 1016.7 0.0
18/12:00am 15.9 11.6 -1.6 30 7.4 ESE 11 13 6 7 1018.2 1016.7 0.0
 
Date/Time
WST
Temp
°C
App
Temp
°C
Dew
Point
°C
Rel
Hum
%
Delta-T
°C
Wind Press
QNH
hPa
Press
MSL
hPa
Rain since
9am
mm
Dir  Spd
km/h
Gust
km/h
Spd
kts
Gust
kts
17/11:30pm 16.4 11.7 -1.7 29 7.6 ESE 13 15 7 8 1018.3 1016.9 0.0
17/11:00pm 16.7 12.0 -1.9 28 7.8 ESE 13 15 7 8 1018.1 1016.6 0.0
17/10:30pm 17.4 12.7 -1.8 27 8.2 ESE 13 17 7 9 1018.4 1017.0 0.0
17/10:00pm 17.4 12.7 -1.8 27 8.2 ESE 13 17 7 9 1018.2 1016.7 0.0
17/09:30pm 15.5 11.2 -1.5 31 7.2 ESE 11 13 6 7 1018.2 1016.7 0.0
17/09:00pm 15.9 12.0 -1.6 30 7.4 ESE 9 11 5 6 1018.2 1016.7 0.0
17/08:30pm 17.0 13.0 -2.1 27 8.0 ESE 9 11 5 6 1018.3 1016.9 0.0
17/08:00pm 18.3 14.1 -1.0 27 8.4 E 11 13 6 7 1018.1 1016.6 0.0
17/07:30pm 18.2 14.4 -1.1 27 8.4 ESE 9 11 5 6 1017.8 1016.3 0.0
17/07:00pm 18.9 14.6 -1.5 25 8.8 ESE 11 11 6 6 1017.4 1016.0 0.0
17/06:30pm 19.8 15.8 -1.9 23 9.4 ESE 9 11 5 6 1017.1 1015.7 0.0
17/06:00pm 21.5 17.2 -1.7 21 10.2 SE 11 13 6 7 1016.9 1015.5 0.0

Other formats

Comma delimited format used in spreadsheet applications
http://www.bom.gov.au/fwo/IDW60801/IDW60801.94212.axf

JavaScript Object Notation format (JSON) in row-major order
http://www.bom.gov.au/fwo/IDW60801/IDW60801.94212.json

Data quality

Most of these data are generated automatically and are frequently updated. Quality checks on data are not normally performed. It is possible for incorrect values to appear. Refer to information at About Latest Weather Observations and please check the disclaimer before using these data.